sensor_id;sensor_type;location;lat;lon;timestamp;P1;durP1;ratioP1;P2;durP2;ratioP2
13807;SDS011;40769;51.512;5.494;2022-07-21T00:00:51;6.88;;;6.28;;
13807;SDS011;40769;51.512;5.494;2022-07-21T00:03:17;5.60;;;5.20;;
13807;SDS011;40769;51.512;5.494;2022-07-21T00:05:42;6.68;;;6.28;;
13807;SDS011;40769;51.512;5.494;2022-07-21T00:08:08;6.78;;;6.28;;
13807;SDS011;40769;51.512;5.494;2022-07-21T00:10:33;6.88;;;6.38;;
13807;SDS011;40769;51.512;5.494;2022-07-21T00:12:59;6.97;;;6.38;;
13807;SDS011;40769;51.512;5.494;2022-07-21T00:15:25;6.53;;;6.03;;
13807;SDS011;40769;51.512;5.494;2022-07-21T00:17:52;5.88;;;5.47;;
13807;SDS011;40769;51.512;5.494;2022-07-21T00:20:18;5.95;;;5.45;;
13807;SDS011;40769;51.512;5.494;2022-07-21T00:22:44;7.63;;;7.05;;
13807;SDS011;40769;51.512;5.494;2022-07-21T00:25:11;6.22;;;5.75;;
13807;SDS011;40769;51.512;5.494;2022-07-21T00:27:38;6.40;;;5.90;;
13807;SDS011;40769;51.512;5.494;2022-07-21T00:30:04;6.10;;;5.70;;
13807;SDS011;40769;51.512;5.494;2022-07-21T00:32:31;6.28;;;5.78;;
13807;SDS011;40769;51.512;5.494;2022-07-21T00:34:57;6.05;;;5.65;;
13807;SDS011;40769;51.512;5.494;2022-07-21T00:37:23;7.45;;;6.95;;
13807;SDS011;40769;51.512;5.494;2022-07-21T00:39:52;6.57;;;6.07;;
13807;SDS011;40769;51.512;5.494;2022-07-21T00:42:25;7.18;;;6.63;;
13807;SDS011;40769;51.512;5.494;2022-07-21T00:44:52;7.45;;;6.90;;
13807;SDS011;40769;51.512;5.494;2022-07-21T00:47:19;6.85;;;6.35;;
13807;SDS011;40769;51.512;5.494;2022-07-21T00:49:46;6.72;;;6.22;;
13807;SDS011;40769;51.512;5.494;2022-07-21T00:52:12;7.63;;;7.03;;
13807;SDS011;40769;51.512;5.494;2022-07-21T00:54:38;7.18;;;6.65;;
13807;SDS011;40769;51.512;5.494;2022-07-21T00:57:04;6.90;;;6.40;;
13807;SDS011;40769;51.512;5.494;2022-07-21T00:59:30;8.55;;;7.90;;
13807;SDS011;40769;51.512;5.494;2022-07-21T01:01:56;7.95;;;7.35;;
13807;SDS011;40769;51.512;5.494;2022-07-21T01:04:22;7.25;;;6.75;;
13807;SDS011;40769;51.512;5.494;2022-07-21T01:06:47;8.40;;;7.80;;
13807;SDS011;40769;51.512;5.494;2022-07-21T01:09:13;8.48;;;7.68;;
13807;SDS011;40769;51.512;5.494;2022-07-21T01:11:39;7.93;;;7.32;;
13807;SDS011;40769;51.512;5.494;2022-07-21T01:14:05;7.45;;;6.95;;
13807;SDS011;40769;51.512;5.494;2022-07-21T01:16:31;8.05;;;7.45;;
13807;SDS011;40769;51.512;5.494;2022-07-21T01:18:57;9.15;;;8.45;;
13807;SDS011;40769;51.512;5.494;2022-07-21T01:21:27;7.88;;;7.38;;
13807;SDS011;40769;51.512;5.494;2022-07-21T01:24:04;6.82;;;6.30;;
13807;SDS011;40769;51.512;5.494;2022-07-21T01:26:31;7.82;;;7.32;;
13807;SDS011;40769;51.512;5.494;2022-07-21T01:29:04;8.32;;;7.63;;
13807;SDS011;40769;51.512;5.494;2022-07-21T01:31:30;9.75;;;8.95;;
13807;SDS011;40769;51.512;5.494;2022-07-21T01:33:56;7.57;;;7.03;;
13807;SDS011;40769;51.512;5.494;2022-07-21T01:36:21;7.57;;;6.97;;
13807;SDS011;40769;51.512;5.494;2022-07-21T01:38:47;8.32;;;7.72;;
13807;SDS011;40769;51.512;5.494;2022-07-21T01:41:31;8.43;;;7.82;;
13807;SDS011;40769;51.512;5.494;2022-07-21T01:44:02;8.52;;;7.93;;
13807;SDS011;40769;51.512;5.494;2022-07-21T01:46:30;8.65;;;7.95;;
13807;SDS011;40769;51.512;5.494;2022-07-21T01:48:58;8.70;;;8.10;;
13807;SDS011;40769;51.512;5.494;2022-07-21T01:51:24;9.45;;;8.55;;
13807;SDS011;40769;51.512;5.494;2022-07-21T01:53:50;7.93;;;7.32;;
13807;SDS011;40769;51.512;5.494;2022-07-21T01:56:18;8.82;;;8.15;;
13807;SDS011;40769;51.512;5.494;2022-07-21T01:58:46;9.40;;;8.70;;
13807;SDS011;40769;51.512;5.494;2022-07-21T02:01:12;8.57;;;7.88;;
13807;SDS011;40769;51.512;5.494;2022-07-21T02:03:37;8.43;;;7.80;;
13807;SDS011;40769;51.512;5.494;2022-07-21T02:06:03;8.23;;;7.63;;
13807;SDS011;40769;51.512;5.494;2022-07-21T02:08:30;10.52;;;9.73;;
13807;SDS011;40769;51.512;5.494;2022-07-21T02:10:56;9.80;;;9.00;;
13807;SDS011;40769;51.512;5.494;2022-07-21T02:13:22;9.02;;;8.32;;
13807;SDS011;40769;51.512;5.494;2022-07-21T02:15:48;7.93;;;7.32;;
13807;SDS011;40769;51.512;5.494;2022-07-21T02:18:14;8.50;;;7.80;;
13807;SDS011;40769;51.512;5.494;2022-07-21T02:20:40;8.75;;;8.15;;
13807;SDS011;40769;51.512;5.494;2022-07-21T02:23:05;8.45;;;7.80;;
13807;SDS011;40769;51.512;5.494;2022-07-21T02:25:31;9.00;;;8.32;;
13807;SDS011;40769;51.512;5.494;2022-07-21T02:27:57;8.57;;;7.97;;
13807;SDS011;40769;51.512;5.494;2022-07-21T02:30:22;9.07;;;8.48;;
13807;SDS011;40769;51.512;5.494;2022-07-21T02:32:48;8.73;;;8.00;;
13807;SDS011;40769;51.512;5.494;2022-07-21T02:35:13;10.43;;;9.63;;
13807;SDS011;40769;51.512;5.494;2022-07-21T02:37:39;8.82;;;8.13;;
13807;SDS011;40769;51.512;5.494;2022-07-21T02:40:05;10.52;;;9.73;;
13807;SDS011;40769;51.512;5.494;2022-07-21T02:42:31;9.80;;;9.05;;
13807;SDS011;40769;51.512;5.494;2022-07-21T02:44:57;7.82;;;7.22;;
13807;SDS011;40769;51.512;5.494;2022-07-21T02:47:22;9.30;;;8.60;;
13807;SDS011;40769;51.512;5.494;2022-07-21T02:49:48;9.10;;;8.45;;
13807;SDS011;40769;51.512;5.494;2022-07-21T02:52:14;8.77;;;8.10;;
13807;SDS011;40769;51.512;5.494;2022-07-21T02:54:39;7.90;;;7.32;;
13807;SDS011;40769;51.512;5.494;2022-07-21T02:57:05;8.63;;;7.95;;
13807;SDS011;40769;51.512;5.494;2022-07-21T02:59:31;9.55;;;8.65;;
13807;SDS011;40769;51.512;5.494;2022-07-21T03:01:56;10.65;;;9.85;;
13807;SDS011;40769;51.512;5.494;2022-07-21T03:04:22;10.52;;;9.73;;
13807;SDS011;40769;51.512;5.494;2022-07-21T03:06:48;9.32;;;8.63;;
13807;SDS011;40769;51.512;5.494;2022-07-21T03:09:14;11.13;;;10.27;;
13807;SDS011;40769;51.512;5.494;2022-07-21T03:11:39;9.77;;;8.98;;
13807;SDS011;40769;51.512;5.494;2022-07-21T03:14:05;11.23;;;10.35;;
13807;SDS011;40769;51.512;5.494;2022-07-21T03:16:31;11.43;;;10.43;;
13807;SDS011;40769;51.512;5.494;2022-07-21T03:18:57;10.80;;;9.90;;
13807;SDS011;40769;51.512;5.494;2022-07-21T03:21:22;11.57;;;10.68;;
13807;SDS011;40769;51.512;5.494;2022-07-21T03:23:48;9.90;;;9.10;;
13807;SDS011;40769;51.512;5.494;2022-07-21T03:26:14;11.15;;;10.25;;
13807;SDS011;40769;51.512;5.494;2022-07-21T03:28:43;10.52;;;9.73;;
13807;SDS011;40769;51.512;5.494;2022-07-21T03:31:09;12.13;;;11.07;;
13807;SDS011;40769;51.512;5.494;2022-07-21T03:33:35;9.05;;;8.35;;
13807;SDS011;40769;51.512;5.494;2022-07-21T03:36:01;10.40;;;9.60;;
13807;SDS011;40769;51.512;5.494;2022-07-21T03:38:27;10.93;;;9.98;;
13807;SDS011;40769;51.512;5.494;2022-07-21T03:40:53;8.73;;;8.02;;
13807;SDS011;40769;51.512;5.494;2022-07-21T03:43:18;9.02;;;8.40;;
13807;SDS011;40769;51.512;5.494;2022-07-21T03:45:44;10.10;;;9.23;;
13807;SDS011;40769;51.512;5.494;2022-07-21T03:48:11;10.82;;;9.98;;
13807;SDS011;40769;51.512;5.494;2022-07-21T03:50:38;11.68;;;10.70;;
13807;SDS011;40769;51.512;5.494;2022-07-21T03:53:06;9.10;;;8.40;;
13807;SDS011;40769;51.512;5.494;2022-07-21T03:55:33;10.63;;;9.82;;
13807;SDS011;40769;51.512;5.494;2022-07-21T03:58:00;10.70;;;9.80;;
13807;SDS011;40769;51.512;5.494;2022-07-21T04:00:30;11.77;;;10.88;;
13807;SDS011;40769;51.512;5.494;2022-07-21T04:02:57;10.88;;;9.88;;
13807;SDS011;40769;51.512;5.494;2022-07-21T04:05:24;10.38;;;9.57;;
13807;SDS011;40769;51.512;5.494;2022-07-21T04:07:51;9.43;;;8.63;;
13807;SDS011;40769;51.512;5.494;2022-07-21T04:10:19;8.23;;;7.28;;
13807;SDS011;40769;51.512;5.494;2022-07-21T04:12:53;7.65;;;7.05;;
13807;SDS011;40769;51.512;5.494;2022-07-21T04:15:20;10.05;;;9.27;;
13807;SDS011;40769;51.512;5.494;2022-07-21T04:17:46;8.95;;;8.32;;
13807;SDS011;40769;51.512;5.494;2022-07-21T04:20:13;10.98;;;10.02;;
13807;SDS011;40769;51.512;5.494;2022-07-21T04:22:40;10.73;;;9.82;;
13807;SDS011;40769;51.512;5.494;2022-07-21T04:25:07;13.57;;;8.55;;
13807;SDS011;40769;51.512;5.494;2022-07-21T04:27:34;11.10;;;10.13;;
13807;SDS011;40769;51.512;5.494;2022-07-21T04:30:00;9.25;;;8.55;;
13807;SDS011;40769;51.512;5.494;2022-07-21T04:32:26;9.77;;;9.07;;
13807;SDS011;40769;51.512;5.494;2022-07-21T04:34:52;12.45;;;11.38;;
13807;SDS011;40769;51.512;5.494;2022-07-21T04:37:17;12.70;;;11.60;;
13807;SDS011;40769;51.512;5.494;2022-07-21T04:39:43;10.32;;;9.52;;
13807;SDS011;40769;51.512;5.494;2022-07-21T04:42:09;9.32;;;8.63;;
13807;SDS011;40769;51.512;5.494;2022-07-21T04:44:34;11.50;;;10.48;;
13807;SDS011;40769;51.512;5.494;2022-07-21T04:47:00;12.00;;;10.98;;
13807;SDS011;40769;51.512;5.494;2022-07-21T04:49:25;12.18;;;11.05;;
13807;SDS011;40769;51.512;5.494;2022-07-21T04:51:51;10.60;;;9.70;;
13807;SDS011;40769;51.512;5.494;2022-07-21T04:54:16;11.68;;;10.70;;
13807;SDS011;40769;51.512;5.494;2022-07-21T04:56:42;11.10;;;10.10;;
13807;SDS011;40769;51.512;5.494;2022-07-21T04:59:08;10.95;;;10.05;;
13807;SDS011;40769;51.512;5.494;2022-07-21T05:01:35;12.23;;;11.13;;
13807;SDS011;40769;51.512;5.494;2022-07-21T05:04:03;11.93;;;10.88;;
13807;SDS011;40769;51.512;5.494;2022-07-21T05:06:29;11.95;;;10.75;;
13807;SDS011;40769;51.512;5.494;2022-07-21T05:08:55;11.55;;;10.32;;
13807;SDS011;40769;51.512;5.494;2022-07-21T05:11:21;10.07;;;9.20;;
13807;SDS011;40769;51.512;5.494;2022-07-21T05:13:46;12.25;;;11.25;;
13807;SDS011;40769;51.512;5.494;2022-07-21T05:16:12;10.95;;;10.05;;
13807;SDS011;40769;51.512;5.494;2022-07-21T05:18:37;9.23;;;8.43;;
13807;SDS011;40769;51.512;5.494;2022-07-21T05:21:03;10.65;;;9.70;;
13807;SDS011;40769;51.512;5.494;2022-07-21T05:23:29;11.23;;;10.30;;
13807;SDS011;40769;51.512;5.494;2022-07-21T05:25:54;9.73;;;8.88;;
13807;SDS011;40769;51.512;5.494;2022-07-21T05:28:20;10.32;;;9.43;;
13807;SDS011;40769;51.512;5.494;2022-07-21T05:30:45;10.35;;;9.25;;
13807;SDS011;40769;51.512;5.494;2022-07-21T05:33:11;10.73;;;9.88;;
13807;SDS011;40769;51.512;5.494;2022-07-21T05:35:37;12.20;;;11.15;;
13807;SDS011;40769;51.512;5.494;2022-07-21T05:38:02;12.15;;;10.98;;
13807;SDS011;40769;51.512;5.494;2022-07-21T05:40:28;10.05;;;9.25;;
13807;SDS011;40769;51.512;5.494;2022-07-21T05:42:54;12.40;;;11.30;;
13807;SDS011;40769;51.512;5.494;2022-07-21T05:45:20;11.50;;;10.60;;
13807;SDS011;40769;51.512;5.494;2022-07-21T05:47:45;13.20;;;11.52;;
13807;SDS011;40769;51.512;5.494;2022-07-21T05:50:12;13.88;;;12.65;;
13807;SDS011;40769;51.512;5.494;2022-07-21T05:52:38;12.70;;;11.70;;
13807;SDS011;40769;51.512;5.494;2022-07-21T05:55:04;11.40;;;10.25;;
13807;SDS011;40769;51.512;5.494;2022-07-21T05:57:31;12.90;;;11.57;;
13807;SDS011;40769;51.512;5.494;2022-07-21T05:59:57;12.75;;;11.55;;
13807;SDS011;40769;51.512;5.494;2022-07-21T06:02:23;14.80;;;13.50;;
13807;SDS011;40769;51.512;5.494;2022-07-21T06:04:49;14.32;;;13.02;;
13807;SDS011;40769;51.512;5.494;2022-07-21T06:07:15;15.52;;;14.13;;
13807;SDS011;40769;51.512;5.494;2022-07-21T06:09:41;18.02;;;15.98;;
13807;SDS011;40769;51.512;5.494;2022-07-21T06:12:06;17.50;;;16.00;;
13807;SDS011;40769;51.512;5.494;2022-07-21T06:14:32;16.92;;;15.43;;
13807;SDS011;40769;51.512;5.494;2022-07-21T06:16:58;18.27;;;16.65;;
13807;SDS011;40769;51.512;5.494;2022-07-21T06:19:23;19.42;;;17.75;;
13807;SDS011;40769;51.512;5.494;2022-07-21T06:21:49;18.48;;;16.88;;
13807;SDS011;40769;51.512;5.494;2022-07-21T06:24:14;18.75;;;16.95;;
13807;SDS011;40769;51.512;5.494;2022-07-21T06:26:40;19.02;;;17.33;;
13807;SDS011;40769;51.512;5.494;2022-07-21T06:29:06;20.05;;;18.13;;
13807;SDS011;40769;51.512;5.494;2022-07-21T06:31:32;19.75;;;17.80;;
13807;SDS011;40769;51.512;5.494;2022-07-21T06:33:58;18.58;;;16.90;;
13807;SDS011;40769;51.512;5.494;2022-07-21T06:36:24;18.10;;;16.35;;
13807;SDS011;40769;51.512;5.494;2022-07-21T06:38:50;16.13;;;14.52;;
13807;SDS011;40769;51.512;5.494;2022-07-21T06:41:15;16.08;;;14.68;;
13807;SDS011;40769;51.512;5.494;2022-07-21T06:43:41;19.90;;;17.95;;
13807;SDS011;40769;51.512;5.494;2022-07-21T06:46:06;19.70;;;17.98;;
13807;SDS011;40769;51.512;5.494;2022-07-21T06:48:32;22.75;;;20.70;;
13807;SDS011;40769;51.512;5.494;2022-07-21T06:50:58;20.25;;;18.40;;
13807;SDS011;40769;51.512;5.494;2022-07-21T06:53:24;21.00;;;19.05;;
13807;SDS011;40769;51.512;5.494;2022-07-21T06:55:50;19.35;;;17.65;;
13807;SDS011;40769;51.512;5.494;2022-07-21T06:58:17;19.00;;;17.10;;
13807;SDS011;40769;51.512;5.494;2022-07-21T07:00:45;19.15;;;17.45;;
13807;SDS011;40769;51.512;5.494;2022-07-21T07:03:11;18.75;;;17.05;;
13807;SDS011;40769;51.512;5.494;2022-07-21T07:05:38;16.65;;;15.18;;
13807;SDS011;40769;51.512;5.494;2022-07-21T07:08:04;17.30;;;15.65;;
13807;SDS011;40769;51.512;5.494;2022-07-21T07:10:31;16.95;;;15.45;;
13807;SDS011;40769;51.512;5.494;2022-07-21T07:12:57;17.42;;;15.93;;
13807;SDS011;40769;51.512;5.494;2022-07-21T07:15:23;16.55;;;15.10;;
13807;SDS011;40769;51.512;5.494;2022-07-21T07:17:50;16.67;;;15.18;;
13807;SDS011;40769;51.512;5.494;2022-07-21T07:20:16;14.30;;;13.13;;
13807;SDS011;40769;51.512;5.494;2022-07-21T07:22:42;16.02;;;14.63;;
13807;SDS011;40769;51.512;5.494;2022-07-21T07:25:08;15.40;;;14.10;;
13807;SDS011;40769;51.512;5.494;2022-07-21T07:27:34;15.10;;;13.80;;
13807;SDS011;40769;51.512;5.494;2022-07-21T07:30:01;15.23;;;13.70;;
13807;SDS011;40769;51.512;5.494;2022-07-21T07:32:27;13.95;;;12.77;;
13807;SDS011;40769;51.512;5.494;2022-07-21T07:34:53;14.60;;;13.20;;
13807;SDS011;40769;51.512;5.494;2022-07-21T07:37:18;13.40;;;12.27;;
13807;SDS011;40769;51.512;5.494;2022-07-21T07:39:44;14.88;;;13.68;;
13807;SDS011;40769;51.512;5.494;2022-07-21T07:42:09;14.05;;;12.82;;
13807;SDS011;40769;51.512;5.494;2022-07-21T07:44:35;14.77;;;13.48;;
13807;SDS011;40769;51.512;5.494;2022-07-21T07:47:01;14.13;;;12.98;;
13807;SDS011;40769;51.512;5.494;2022-07-21T07:49:28;13.57;;;12.27;;
13807;SDS011;40769;51.512;5.494;2022-07-21T07:51:54;13.35;;;12.02;;
13807;SDS011;40769;51.512;5.494;2022-07-21T07:54:20;12.25;;;11.15;;
13807;SDS011;40769;51.512;5.494;2022-07-21T07:56:46;9.82;;;9.00;;
13807;SDS011;40769;51.512;5.494;2022-07-21T07:59:12;7.63;;;7.03;;
13807;SDS011;40769;51.512;5.494;2022-07-21T08:01:38;8.55;;;7.85;;
13807;SDS011;40769;51.512;5.494;2022-07-21T08:04:04;8.80;;;8.10;;
13807;SDS011;40769;51.512;5.494;2022-07-21T08:06:30;8.25;;;7.55;;
13807;SDS011;40769;51.512;5.494;2022-07-21T08:08:55;7.88;;;7.18;;
13807;SDS011;40769;51.512;5.494;2022-07-21T08:11:21;8.15;;;7.55;;
13807;SDS011;40769;51.512;5.494;2022-07-21T08:13:46;8.45;;;7.85;;
13807;SDS011;40769;51.512;5.494;2022-07-21T08:16:12;8.38;;;7.78;;
13807;SDS011;40769;51.512;5.494;2022-07-21T08:18:40;8.00;;;7.30;;
13807;SDS011;40769;51.512;5.494;2022-07-21T08:21:06;7.28;;;6.68;;
13807;SDS011;40769;51.512;5.494;2022-07-21T08:23:32;6.78;;;6.18;;
13807;SDS011;40769;51.512;5.494;2022-07-21T08:25:58;5.88;;;5.47;;
13807;SDS011;40769;51.512;5.494;2022-07-21T08:28:23;5.25;;;4.85;;
13807;SDS011;40769;51.512;5.494;2022-07-21T08:30:49;5.40;;;5.00;;
13807;SDS011;40769;51.512;5.494;2022-07-21T08:33:15;4.97;;;4.68;;
13807;SDS011;40769;51.512;5.494;2022-07-21T08:35:41;5.57;;;5.18;;
13807;SDS011;40769;51.512;5.494;2022-07-21T08:38:07;5.60;;;5.20;;
13807;SDS011;40769;51.512;5.494;2022-07-21T08:40:36;5.50;;;5.00;;
13807;SDS011;40769;51.512;5.494;2022-07-21T08:43:06;4.78;;;4.38;;
13807;SDS011;40769;51.512;5.494;2022-07-21T08:45:33;5.43;;;5.03;;
13807;SDS011;40769;51.512;5.494;2022-07-21T08:48:00;5.13;;;4.72;;
13807;SDS011;40769;51.512;5.494;2022-07-21T08:50:30;4.65;;;4.35;;
13807;SDS011;40769;51.512;5.494;2022-07-21T08:52:57;5.60;;;5.20;;
13807;SDS011;40769;51.512;5.494;2022-07-21T08:55:23;5.32;;;5.00;;
13807;SDS011;40769;51.512;5.494;2022-07-21T08:57:49;5.13;;;4.78;;
13807;SDS011;40769;51.512;5.494;2022-07-21T09:00:15;5.85;;;5.45;;
13807;SDS011;40769;51.512;5.494;2022-07-21T09:02:41;5.45;;;5.05;;
13807;SDS011;40769;51.512;5.494;2022-07-21T09:05:08;6.40;;;5.90;;
13807;SDS011;40769;51.512;5.494;2022-07-21T09:07:50;7.28;;;6.78;;
13807;SDS011;40769;51.512;5.494;2022-07-21T09:10:28;7.07;;;6.57;;
13807;SDS011;40769;51.512;5.494;2022-07-21T09:12:56;7.40;;;6.80;;
13807;SDS011;40769;51.512;5.494;2022-07-21T09:15:24;6.43;;;6.03;;
13807;SDS011;40769;51.512;5.494;2022-07-21T09:18:08;6.80;;;6.30;;
13807;SDS011;40769;51.512;5.494;2022-07-21T09:20:46;7.88;;;7.30;;
13807;SDS011;40769;51.512;5.494;2022-07-21T09:23:14;8.15;;;7.55;;
13807;SDS011;40769;51.512;5.494;2022-07-21T09:25:42;8.82;;;8.13;;
13807;SDS011;40769;51.512;5.494;2022-07-21T09:28:16;9.25;;;8.45;;
13807;SDS011;40769;51.512;5.494;2022-07-21T09:31:02;8.82;;;8.13;;
13807;SDS011;40769;51.512;5.494;2022-07-21T09:36:17;8.95;;;8.25;;
13807;SDS011;40769;51.512;5.494;2022-07-21T09:38:44;8.38;;;7.78;;
13807;SDS011;40769;51.512;5.494;2022-07-21T09:41:16;7.68;;;7.00;;
13807;SDS011;40769;51.512;5.494;2022-07-21T09:43:45;6.97;;;6.47;;
13807;SDS011;40769;51.512;5.494;2022-07-21T09:46:44;7.80;;;7.20;;
13807;SDS011;40769;51.512;5.494;2022-07-21T09:49:05;5.18;;;4.78;;
13807;SDS011;40769;51.512;5.494;2022-07-21T09:51:32;5.03;;;4.70;;
13807;SDS011;40769;51.512;5.494;2022-07-21T09:54:04;5.00;;;4.70;;
13807;SDS011;40769;51.512;5.494;2022-07-21T09:56:32;5.60;;;5.10;;
13807;SDS011;40769;51.512;5.494;2022-07-21T09:59:06;5.60;;;5.20;;
13807;SDS011;40769;51.512;5.494;2022-07-21T10:01:33;5.07;;;4.70;;
13807;SDS011;40769;51.512;5.494;2022-07-21T10:04:01;7.68;;;5.95;;
13807;SDS011;40769;51.512;5.494;2022-07-21T10:06:31;7.53;;;5.95;;
13807;SDS011;40769;51.512;5.494;2022-07-21T10:08:58;7.05;;;6.47;;
13807;SDS011;40769;51.512;5.494;2022-07-21T10:11:26;5.78;;;5.38;;
13807;SDS011;40769;51.512;5.494;2022-07-21T10:13:52;5.78;;;5.38;;
13807;SDS011;40769;51.512;5.494;2022-07-21T10:16:21;6.10;;;5.60;;
13807;SDS011;40769;51.512;5.494;2022-07-21T10:19:08;6.32;;;5.82;;
13807;SDS011;40769;51.512;5.494;2022-07-21T10:21:46;6.05;;;5.65;;
13807;SDS011;40769;51.512;5.494;2022-07-21T10:24:20;5.28;;;4.88;;
13807;SDS011;40769;51.512;5.494;2022-07-21T10:27:03;5.88;;;5.47;;
13807;SDS011;40769;51.512;5.494;2022-07-21T10:32:23;6.07;;;5.68;;
13807;SDS011;40769;51.512;5.494;2022-07-21T10:37:54;6.53;;;6.03;;
13807;SDS011;40769;51.512;5.494;2022-07-21T10:45:35;7.90;;;7.30;;
13807;SDS011;40769;51.512;5.494;2022-07-21T10:48:08;6.43;;;6.03;;
13807;SDS011;40769;51.512;5.494;2022-07-21T10:51:02;8.55;;;7.85;;
13807;SDS011;40769;51.512;5.494;2022-07-21T10:53:29;8.80;;;8.02;;
13807;SDS011;40769;51.512;5.494;2022-07-21T10:55:55;8.48;;;7.78;;
13807;SDS011;40769;51.512;5.494;2022-07-21T10:58:30;8.40;;;7.75;;
13807;SDS011;40769;51.512;5.494;2022-07-21T11:01:00;8.13;;;7.40;;
13807;SDS011;40769;51.512;5.494;2022-07-21T11:03:27;6.90;;;6.40;;
13807;SDS011;40769;51.512;5.494;2022-07-21T11:11:20;8.00;;;7.30;;
13807;SDS011;40769;51.512;5.494;2022-07-21T11:14:07;7.65;;;6.95;;
13807;SDS011;40769;51.512;5.494;2022-07-21T11:22:21;6.00;;;5.57;;
13807;SDS011;40769;51.512;5.494;2022-07-21T11:25:02;6.40;;;5.90;;
13807;SDS011;40769;51.512;5.494;2022-07-21T11:27:30;6.78;;;6.28;;
13807;SDS011;40769;51.512;5.494;2022-07-21T11:29:58;7.63;;;6.88;;
13807;SDS011;40769;51.512;5.494;2022-07-21T11:32:25;6.43;;;5.93;;
13807;SDS011;40769;51.512;5.494;2022-07-21T11:34:53;8.60;;;7.90;;
13807;SDS011;40769;51.512;5.494;2022-07-21T11:39:56;6.72;;;6.22;;
13807;SDS011;40769;51.512;5.494;2022-07-21T11:42:22;7.25;;;6.55;;
13807;SDS011;40769;51.512;5.494;2022-07-21T11:44:50;8.50;;;7.80;;
13807;SDS011;40769;51.512;5.494;2022-07-21T11:47:15;8.75;;;8.13;;
13807;SDS011;40769;51.512;5.494;2022-07-21T11:49:42;7.90;;;7.30;;
13807;SDS011;40769;51.512;5.494;2022-07-21T11:52:10;7.30;;;6.78;;
13807;SDS011;40769;51.512;5.494;2022-07-21T11:54:38;6.82;;;5.97;;
13807;SDS011;40769;51.512;5.494;2022-07-21T11:57:12;5.40;;;5.00;;
13807;SDS011;40769;51.512;5.494;2022-07-21T11:59:40;6.18;;;5.68;;
13807;SDS011;40769;51.512;5.494;2022-07-21T12:02:13;6.47;;;6.00;;
13807;SDS011;40769;51.512;5.494;2022-07-21T12:04:41;6.03;;;5.53;;
13807;SDS011;40769;51.512;5.494;2022-07-21T12:10:09;5.47;;;5.13;;
13807;SDS011;40769;51.512;5.494;2022-07-21T12:15:14;7.22;;;5.55;;
13807;SDS011;40769;51.512;5.494;2022-07-21T12:17:48;5.70;;;5.30;;
13807;SDS011;40769;51.512;5.494;2022-07-21T12:25:43;6.47;;;5.97;;
13807;SDS011;40769;51.512;5.494;2022-07-21T12:28:09;7.30;;;6.60;;
13807;SDS011;40769;51.512;5.494;2022-07-21T12:30:41;6.32;;;5.90;;
13807;SDS011;40769;51.512;5.494;2022-07-21T12:33:18;8.20;;;7.50;;
13807;SDS011;40769;51.512;5.494;2022-07-21T12:35:58;7.03;;;6.45;;
13807;SDS011;40769;51.512;5.494;2022-07-21T12:38:41;7.22;;;6.63;;
13807;SDS011;40769;51.512;5.494;2022-07-21T12:41:09;5.43;;;4.97;;
13807;SDS011;40769;51.512;5.494;2022-07-21T12:43:37;6.15;;;5.68;;
13807;SDS011;40769;51.512;5.494;2022-07-21T12:46:08;5.93;;;5.45;;
13807;SDS011;40769;51.512;5.494;2022-07-21T12:48:40;5.55;;;5.15;;
13807;SDS011;40769;51.512;5.494;2022-07-21T12:51:08;5.78;;;5.38;;
13807;SDS011;40769;51.512;5.494;2022-07-21T12:56:16;7.97;;;7.38;;
13807;SDS011;40769;51.512;5.494;2022-07-21T12:58:44;8.48;;;7.78;;
13807;SDS011;40769;51.512;5.494;2022-07-21T13:01:09;6.55;;;6.05;;
13807;SDS011;40769;51.512;5.494;2022-07-21T13:03:36;7.25;;;6.60;;
13807;SDS011;40769;51.512;5.494;2022-07-21T13:06:03;6.07;;;5.47;;
13807;SDS011;40769;51.512;5.494;2022-07-21T13:08:30;5.97;;;5.57;;
13807;SDS011;40769;51.512;5.494;2022-07-21T13:10:57;7.30;;;6.63;;
13807;SDS011;40769;51.512;5.494;2022-07-21T13:13:23;6.03;;;5.53;;
13807;SDS011;40769;51.512;5.494;2022-07-21T13:15:49;6.45;;;5.95;;
13807;SDS011;40769;51.512;5.494;2022-07-21T13:18:15;5.90;;;5.43;;
13807;SDS011;40769;51.512;5.494;2022-07-21T13:20:40;6.03;;;5.28;;
13807;SDS011;40769;51.512;5.494;2022-07-21T13:23:06;4.80;;;4.40;;
13807;SDS011;40769;51.512;5.494;2022-07-21T13:25:33;4.97;;;4.57;;
13807;SDS011;40769;51.512;5.494;2022-07-21T13:27:59;5.13;;;4.72;;
13807;SDS011;40769;51.512;5.494;2022-07-21T13:30:25;5.10;;;4.70;;
13807;SDS011;40769;51.512;5.494;2022-07-21T13:32:51;5.80;;;4.50;;
13807;SDS011;40769;51.512;5.494;2022-07-21T13:35:16;3.67;;;3.47;;
13807;SDS011;40769;51.512;5.494;2022-07-21T13:37:42;4.88;;;4.47;;
13807;SDS011;40769;51.512;5.494;2022-07-21T13:40:08;4.03;;;3.72;;
13807;SDS011;40769;51.512;5.494;2022-07-21T13:42:34;4.00;;;3.70;;
13807;SDS011;40769;51.512;5.494;2022-07-21T13:45:00;4.55;;;4.20;;
13807;SDS011;40769;51.512;5.494;2022-07-21T13:47:26;3.33;;;3.13;;
13807;SDS011;40769;51.512;5.494;2022-07-21T13:49:51;5.20;;;4.75;;
13807;SDS011;40769;51.512;5.494;2022-07-21T13:52:17;4.85;;;4.45;;
13807;SDS011;40769;51.512;5.494;2022-07-21T13:54:42;4.57;;;4.18;;
13807;SDS011;40769;51.512;5.494;2022-07-21T13:57:08;4.97;;;4.55;;
13807;SDS011;40769;51.512;5.494;2022-07-21T13:59:33;4.60;;;4.30;;
13807;SDS011;40769;51.512;5.494;2022-07-21T14:01:59;4.03;;;3.72;;
13807;SDS011;40769;51.512;5.494;2022-07-21T14:04:24;6.15;;;5.65;;
13807;SDS011;40769;51.512;5.494;2022-07-21T14:06:50;5.10;;;4.70;;
13807;SDS011;40769;51.512;5.494;2022-07-21T14:09:17;5.63;;;5.13;;
13807;SDS011;40769;51.512;5.494;2022-07-21T14:11:44;5.70;;;5.20;;
13807;SDS011;40769;51.512;5.494;2022-07-21T14:14:10;4.80;;;4.40;;
13807;SDS011;40769;51.512;5.494;2022-07-21T14:16:42;5.68;;;5.15;;
13807;SDS011;40769;51.512;5.494;2022-07-21T14:19:08;6.05;;;5.55;;
13807;SDS011;40769;51.512;5.494;2022-07-21T14:21:33;6.50;;;5.90;;
13807;SDS011;40769;51.512;5.494;2022-07-21T14:23:59;6.70;;;6.10;;
13807;SDS011;40769;51.512;5.494;2022-07-21T14:26:43;6.07;;;5.57;;
13807;SDS011;40769;51.512;5.494;2022-07-21T14:29:09;7.72;;;6.97;;
13807;SDS011;40769;51.512;5.494;2022-07-21T14:31:34;7.45;;;6.75;;
13807;SDS011;40769;51.512;5.494;2022-07-21T14:34:00;7.57;;;6.88;;
13807;SDS011;40769;51.512;5.494;2022-07-21T14:36:25;7.63;;;7.03;;
13807;SDS011;40769;51.512;5.494;2022-07-21T14:38:51;5.53;;;5.03;;
13807;SDS011;40769;51.512;5.494;2022-07-21T14:41:17;7.50;;;6.90;;
13807;SDS011;40769;51.512;5.494;2022-07-21T14:43:42;7.03;;;6.43;;
13807;SDS011;40769;51.512;5.494;2022-07-21T14:46:08;6.32;;;5.82;;
13807;SDS011;40769;51.512;5.494;2022-07-21T14:48:33;5.75;;;5.35;;
13807;SDS011;40769;51.512;5.494;2022-07-21T14:50:59;5.63;;;5.22;;
13807;SDS011;40769;51.512;5.494;2022-07-21T14:53:24;5.70;;;5.18;;
13807;SDS011;40769;51.512;5.494;2022-07-21T14:55:50;9.55;;;8.57;;
13807;SDS011;40769;51.512;5.494;2022-07-21T14:58:15;8.90;;;8.10;;
13807;SDS011;40769;51.512;5.494;2022-07-21T15:00:41;10.82;;;9.73;;
13807;SDS011;40769;51.512;5.494;2022-07-21T15:03:07;8.25;;;7.45;;
13807;SDS011;40769;51.512;5.494;2022-07-21T15:05:32;11.50;;;10.40;;
13807;SDS011;40769;51.512;5.494;2022-07-21T15:07:58;10.88;;;9.98;;
13807;SDS011;40769;51.512;5.494;2022-07-21T15:10:24;11.48;;;10.55;;
13807;SDS011;40769;51.512;5.494;2022-07-21T15:12:49;11.93;;;10.85;;
13807;SDS011;40769;51.512;5.494;2022-07-21T15:15:15;10.55;;;9.73;;
13807;SDS011;40769;51.512;5.494;2022-07-21T15:17:41;10.07;;;9.18;;
13807;SDS011;40769;51.512;5.494;2022-07-21T15:20:07;11.18;;;10.18;;
13807;SDS011;40769;51.512;5.494;2022-07-21T15:22:34;11.57;;;10.68;;